Terminal Aerodrome Forecast
Issued by NWS

Home | Current Version | Previous Version | Text Only | Print | Product List | Glossary On
Versions: 1 2 3 4 5 6 7 8 9 10 11 12 13 14 15
000
FTUS43 KLSX 201012 AAA
TAFUIN
TAF AMD
KUIN 201012Z 2010/2106 15009KT 6SM BR BKN250
      TEMPO 2011/2014 4SM BR SCT010
     FM201500 15012KT P6SM BKN050
     FM201900 17015G24KT 6SM -SHRA BKN050
     FM210000 19010KT 6SM -SHRA BKN030=

USA.gov is the U.S. government's official web portal to all federal, state and local government web resources and services.